首页
METAR-TAF:

METAR-TAF

机场 :

孔戈尼亚斯/圣保罗机场

聖保羅, 圣保罗州, 巴西

纬度: 23-37S, 经度: 046-39W, 海拔: 803米

当前天气观测

该预报发布于54分钟前的21:00 UTC
风速9节,风向
温度 17°C
湿度 88%
气压 1023 hPa
能見度: 7000
多云层高于600英尺

METAR: SBSP 252100Z 18009KT 7000 BKN006 17/15 Q1023

时间: 18:54 (21:54 UTC)

预报

该预报发布于5小时和24分钟前的16:30 UTC
预报有效从25日的 18点(UTC)到 26日的 06点(UTC)
风速10节,风向
能見度: 8000
散云层高于1000英尺
多云层高于1300英尺
几率 30% :
短暂存在
从 25日的 18点(UTC)到 25日的 20点(UTC)
多云层高于1000英尺
毛毛雨
成为
从 25日的 21点(UTC)到 25日的 23点(UTC)
风速6节,风向东南
多云层高于700英尺

TAF: SBSP 251630Z 2518/2606 17010KT 8000 SCT010 BKN013 TX18/2518Z TN17/2606Z PROB30 TEMPO 2518/2520 DZ BKN010 BECMG 2521/2523 14006KT BKN007 RMK PHP

超过4000个机场的气象观测和天气预报(METAR&TAF报告)。

可查询的气象台以黄色和红色小点在地图上表示。

将鼠标移到小点上方,可查看气象台名称。

然后点击查看天气观测和预报。

如需切换地图:点击带黑十字的绿色按钮放大地图;点击带横线的绿色按钮缩小地图;或者点击绿色箭头查看邻近地区的地图。


METAR-TAF: